sensor_id;sensor_type;location;lat;lon;timestamp;pressure;altitude;pressure_sealevel;temperature;humidity
71795;BME280;59641;45.188;5.712;2023-05-23T00:00:45;99187.31;;;21.13;55.89
71795;BME280;59641;45.188;5.712;2023-05-23T00:03:12;99185.69;;;21.12;55.70
71795;BME280;59641;45.188;5.712;2023-05-23T00:05:37;99186.53;;;21.12;56.04
71795;BME280;59641;45.188;5.712;2023-05-23T00:08:03;99178.63;;;21.11;56.34
71795;BME280;59641;45.188;5.712;2023-05-23T00:10:28;99184.06;;;21.11;56.18
71795;BME280;59641;45.188;5.712;2023-05-23T00:12:53;99177.28;;;21.08;56.00
71795;BME280;59641;45.188;5.712;2023-05-23T00:15:19;99172.97;;;21.07;55.99
71795;BME280;59641;45.188;5.712;2023-05-23T00:17:45;99177.88;;;21.05;56.07
71795;BME280;59641;45.188;5.712;2023-05-23T00:20:11;99172.44;;;21.05;55.67
71795;BME280;59641;45.188;5.712;2023-05-23T00:22:37;99175.44;;;21.03;55.91
71795;BME280;59641;45.188;5.712;2023-05-23T00:25:09;99174.13;;;21.01;55.72
71795;BME280;59641;45.188;5.712;2023-05-23T00:27:35;99166.22;;;20.99;55.98
71795;BME280;59641;45.188;5.712;2023-05-23T00:30:01;99168.44;;;20.97;55.98
71795;BME280;59641;45.188;5.712;2023-05-23T00:32:26;99166.00;;;20.96;55.92
71795;BME280;59641;45.188;5.712;2023-05-23T00:34:52;99161.34;;;20.96;56.03
71795;BME280;59641;45.188;5.712;2023-05-23T00:37:19;99158.63;;;20.96;56.04
71795;BME280;59641;45.188;5.712;2023-05-23T00:39:44;99161.63;;;20.95;55.81
71795;BME280;59641;45.188;5.712;2023-05-23T00:42:10;99152.66;;;20.94;55.84
71795;BME280;59641;45.188;5.712;2023-05-23T00:44:35;99152.13;;;20.92;55.84
71795;BME280;59641;45.188;5.712;2023-05-23T00:47:01;99154.84;;;20.92;55.88
71795;BME280;59641;45.188;5.712;2023-05-23T00:49:26;99148.06;;;20.90;55.90
71795;BME280;59641;45.188;5.712;2023-05-23T00:51:52;99155.16;;;20.91;55.79
71795;BME280;59641;45.188;5.712;2023-05-23T00:54:23;99160.91;;;20.89;55.88
71795;BME280;59641;45.188;5.712;2023-05-23T00:56:49;99159.56;;;20.87;55.81
71795;BME280;59641;45.188;5.712;2023-05-23T00:59:14;99162.59;;;20.85;55.80
71795;BME280;59641;45.188;5.712;2023-05-23T01:01:41;99154.72;;;20.83;56.23
71795;BME280;59641;45.188;5.712;2023-05-23T01:04:10;99152.56;;;20.80;56.00
71795;BME280;59641;45.188;5.712;2023-05-23T01:06:37;99156.91;;;20.81;55.59
71795;BME280;59641;45.188;5.712;2023-05-23T01:09:03;99145.50;;;20.79;55.77
71795;BME280;59641;45.188;5.712;2023-05-23T01:12:03;99151.75;;;20.80;55.64
71795;BME280;59641;45.188;5.712;2023-05-23T01:17:43;99154.81;;;20.73;55.82
71795;BME280;59641;45.188;5.712;2023-05-23T01:20:21;99166.25;;;20.75;56.02
71795;BME280;59641;45.188;5.712;2023-05-23T01:28:15;99162.19;;;20.73;56.02
71795;BME280;59641;45.188;5.712;2023-05-23T01:30:43;99168.75;;;20.72;56.26
71795;BME280;59641;45.188;5.712;2023-05-23T01:33:13;99161.41;;;20.72;55.90
71795;BME280;59641;45.188;5.712;2023-05-23T01:35:41;99165.53;;;20.70;55.65
71795;BME280;59641;45.188;5.712;2023-05-23T01:38:08;99163.91;;;20.69;56.14
71795;BME280;59641;45.188;5.712;2023-05-23T01:40:33;99164.19;;;20.67;56.27
71795;BME280;59641;45.188;5.712;2023-05-23T01:42:59;99167.19;;;20.66;55.98
71795;BME280;59641;45.188;5.712;2023-05-23T01:45:25;99162.06;;;20.64;55.93
71795;BME280;59641;45.188;5.712;2023-05-23T01:47:53;99166.19;;;20.61;55.99
71795;BME280;59641;45.188;5.712;2023-05-23T01:50:19;99153.94;;;20.59;55.73
71795;BME280;59641;45.188;5.712;2023-05-23T01:52:46;99151.50;;;20.57;56.04
71795;BME280;59641;45.188;5.712;2023-05-23T01:55:13;99151.78;;;20.56;55.90
71795;BME280;59641;45.188;5.712;2023-05-23T01:57:41;99148.81;;;20.52;55.86
71795;BME280;59641;45.188;5.712;2023-05-23T02:00:07;99160.78;;;20.51;55.91
71795;BME280;59641;45.188;5.712;2023-05-23T02:02:35;99142.31;;;20.48;55.81
71795;BME280;59641;45.188;5.712;2023-05-23T02:05:00;99148.34;;;20.45;55.83
71795;BME280;59641;45.188;5.712;2023-05-23T02:07:26;99150.00;;;20.41;56.16
71795;BME280;59641;45.188;5.712;2023-05-23T02:09:51;99142.13;;;20.39;56.12
71795;BME280;59641;45.188;5.712;2023-05-23T02:12:17;99147.88;;;20.38;56.02
71795;BME280;59641;45.188;5.712;2023-05-23T02:14:42;99147.34;;;20.36;56.25
71795;BME280;59641;45.188;5.712;2023-05-23T02:17:08;99143.81;;;20.35;56.33
71795;BME280;59641;45.188;5.712;2023-05-23T02:19:36;99140.84;;;20.32;55.98
71795;BME280;59641;45.188;5.712;2023-05-23T02:22:02;99149.31;;;20.30;56.31
71795;BME280;59641;45.188;5.712;2023-05-23T02:24:28;99149.59;;;20.29;56.31
71795;BME280;59641;45.188;5.712;2023-05-23T02:26:53;99143.03;;;20.30;56.54
71795;BME280;59641;45.188;5.712;2023-05-23T02:29:19;99153.13;;;20.29;56.42
71795;BME280;59641;45.188;5.712;2023-05-23T02:31:44;99150.41;;;20.29;56.01
71795;BME280;59641;45.188;5.712;2023-05-23T02:34:10;99152.34;;;20.29;56.38
71795;BME280;59641;45.188;5.712;2023-05-23T02:36:35;99150.41;;;20.29;56.16
71795;BME280;59641;45.188;5.712;2023-05-23T02:39:02;99148.00;;;20.28;56.15
71795;BME280;59641;45.188;5.712;2023-05-23T02:41:28;99156.44;;;20.26;56.42
71795;BME280;59641;45.188;5.712;2023-05-23T02:43:53;99156.72;;;20.25;56.31
71795;BME280;59641;45.188;5.712;2023-05-23T02:46:18;99154.81;;;20.25;56.39
71795;BME280;59641;45.188;5.712;2023-05-23T02:48:44;99153.19;;;20.24;56.39
71795;BME280;59641;45.188;5.712;2023-05-23T02:51:09;99157.03;;;20.23;56.08
71795;BME280;59641;45.188;5.712;2023-05-23T02:53:35;99156.78;;;20.19;56.41
71795;BME280;59641;45.188;5.712;2023-05-23T02:56:00;99154.38;;;20.18;56.11
71795;BME280;59641;45.188;5.712;2023-05-23T02:58:26;99150.81;;;20.17;56.30
71795;BME280;59641;45.188;5.712;2023-05-23T03:00:51;99155.44;;;20.17;56.34
71795;BME280;59641;45.188;5.712;2023-05-23T03:03:16;99147.56;;;20.15;56.24
71795;BME280;59641;45.188;5.712;2023-05-23T03:05:42;99153.84;;;20.16;56.46
71795;BME280;59641;45.188;5.712;2023-05-23T03:08:07;99154.13;;;20.14;56.58
71795;BME280;59641;45.188;5.712;2023-05-23T03:10:33;99155.72;;;20.15;56.83
71795;BME280;59641;45.188;5.712;2023-05-23T03:12:58;99152.19;;;20.15;56.73
71795;BME280;59641;45.188;5.712;2023-05-23T03:15:24;99156.84;;;20.14;56.70
71795;BME280;59641;45.188;5.712;2023-05-23T03:17:49;99163.41;;;20.13;56.49
71795;BME280;59641;45.188;5.712;2023-05-23T03:20:15;99159.84;;;20.13;56.80
71795;BME280;59641;45.188;5.712;2023-05-23T03:22:40;99165.28;;;20.13;56.62
71795;BME280;59641;45.188;5.712;2023-05-23T03:25:08;99157.13;;;20.13;56.63
71795;BME280;59641;45.188;5.712;2023-05-23T03:27:33;99159.56;;;20.14;56.77
71795;BME280;59641;45.188;5.712;2023-05-23T03:29:58;99164.72;;;20.16;56.99
71795;BME280;59641;45.188;5.712;2023-05-23T03:32:24;99159.81;;;20.18;56.62
71795;BME280;59641;45.188;5.712;2023-05-23T03:34:49;99158.97;;;20.17;56.92
71795;BME280;59641;45.188;5.712;2023-05-23T03:37:15;99161.16;;;20.20;56.72
71795;BME280;59641;45.188;5.712;2023-05-23T03:39:40;99158.41;;;20.20;56.63
71795;BME280;59641;45.188;5.712;2023-05-23T03:42:06;99164.69;;;20.21;56.76
71795;BME280;59641;45.188;5.712;2023-05-23T03:44:31;99165.19;;;20.23;56.72
71795;BME280;59641;45.188;5.712;2023-05-23T03:46:57;99169.00;;;20.22;56.67
71795;BME280;59641;45.188;5.712;2023-05-23T03:49:22;99164.09;;;20.24;56.72
71795;BME280;59641;45.188;5.712;2023-05-23T03:51:47;99178.25;;;20.26;56.58
71795;BME280;59641;45.188;5.712;2023-05-23T03:54:13;99173.59;;;20.27;56.86
71795;BME280;59641;45.188;5.712;2023-05-23T03:56:38;99167.88;;;20.28;56.90
71795;BME280;59641;45.188;5.712;2023-05-23T03:59:03;99164.03;;;20.29;57.17
71795;BME280;59641;45.188;5.712;2023-05-23T04:01:29;99164.56;;;20.31;56.77
71795;BME280;59641;45.188;5.712;2023-05-23T04:03:54;99163.75;;;20.31;56.47
71795;BME280;59641;45.188;5.712;2023-05-23T04:06:19;99164.56;;;20.31;56.49
71795;BME280;59641;45.188;5.712;2023-05-23T04:08:46;99159.38;;;20.30;56.87
71795;BME280;59641;45.188;5.712;2023-05-23T04:11:12;99159.38;;;20.30;56.64
71795;BME280;59641;45.188;5.712;2023-05-23T04:13:38;99157.78;;;20.29;56.30
71795;BME280;59641;45.188;5.712;2023-05-23T04:16:03;99165.16;;;20.28;56.56
71795;BME280;59641;45.188;5.712;2023-05-23T04:18:30;99152.59;;;20.27;56.52
71795;BME280;59641;45.188;5.712;2023-05-23T04:20:58;99163.50;;;20.27;56.80
71795;BME280;59641;45.188;5.712;2023-05-23T04:23:23;99162.69;;;20.27;57.02
71795;BME280;59641;45.188;5.712;2023-05-23T04:25:49;99167.88;;;20.28;56.82
71795;BME280;59641;45.188;5.712;2023-05-23T04:28:15;99160.50;;;20.29;56.52
71795;BME280;59641;45.188;5.712;2023-05-23T04:30:42;99170.59;;;20.28;56.44
71795;BME280;59641;45.188;5.712;2023-05-23T04:33:07;99168.97;;;20.27;56.81
71795;BME280;59641;45.188;5.712;2023-05-23T04:35:34;99164.63;;;20.26;56.72
71795;BME280;59641;45.188;5.712;2023-05-23T04:38:03;99169.25;;;20.26;57.01
71795;BME280;59641;45.188;5.712;2023-05-23T04:40:28;99170.34;;;20.25;56.95
71795;BME280;59641;45.188;5.712;2023-05-23T04:42:54;99172.78;;;20.26;56.93
71795;BME280;59641;45.188;5.712;2023-05-23T04:45:20;99176.31;;;20.27;57.15
71795;BME280;59641;45.188;5.712;2023-05-23T04:47:46;99177.13;;;20.27;57.12
71795;BME280;59641;45.188;5.712;2023-05-23T04:50:11;99180.38;;;20.29;57.29
71795;BME280;59641;45.188;5.712;2023-05-23T04:52:39;99178.47;;;20.30;57.26
71795;BME280;59641;45.188;5.712;2023-05-23T04:55:05;99182.81;;;20.31;56.88
71795;BME280;59641;45.188;5.712;2023-05-23T04:57:31;99179.00;;;20.32;56.69
71795;BME280;59641;45.188;5.712;2023-05-23T04:59:56;99178.19;;;20.31;56.69
71795;BME280;59641;45.188;5.712;2023-05-23T05:02:22;99183.63;;;20.31;56.77
71795;BME280;59641;45.188;5.712;2023-05-23T05:04:47;99184.75;;;20.30;57.01
71795;BME280;59641;45.188;5.712;2023-05-23T05:07:12;99182.03;;;20.30;56.90
71795;BME280;59641;45.188;5.712;2023-05-23T05:09:38;99179.28;;;20.30;56.72
71795;BME280;59641;45.188;5.712;2023-05-23T05:12:03;99175.75;;;20.30;56.96
71795;BME280;59641;45.188;5.712;2023-05-23T05:14:29;99175.25;;;20.28;56.97
71795;BME280;59641;45.188;5.712;2023-05-23T05:16:54;99176.56;;;20.30;57.03
71795;BME280;59641;45.188;5.712;2023-05-23T05:19:24;99179.28;;;20.30;56.92
71795;BME280;59641;45.188;5.712;2023-05-23T05:21:49;99177.66;;;20.29;57.11
71795;BME280;59641;45.188;5.712;2023-05-23T05:24:15;99182.03;;;20.30;56.77
71795;BME280;59641;45.188;5.712;2023-05-23T05:26:41;99183.09;;;20.29;56.84
71795;BME280;59641;45.188;5.712;2023-05-23T05:29:06;99177.38;;;20.31;57.03
71795;BME280;59641;45.188;5.712;2023-05-23T05:31:32;99179.78;;;20.32;56.70
71795;BME280;59641;45.188;5.712;2023-05-23T05:33:58;99182.53;;;20.32;56.62
71795;BME280;59641;45.188;5.712;2023-05-23T05:36:23;99182.53;;;20.32;56.76
71795;BME280;59641;45.188;5.712;2023-05-23T05:38:48;99184.16;;;20.33;56.54
71795;BME280;59641;45.188;5.712;2023-05-23T05:41:14;99176.78;;;20.34;56.75
71795;BME280;59641;45.188;5.712;2023-05-23T05:43:39;99178.13;;;20.36;56.39
71795;BME280;59641;45.188;5.712;2023-05-23T05:46:04;99182.50;;;20.37;56.35
71795;BME280;59641;45.188;5.712;2023-05-23T05:48:30;99182.50;;;20.37;56.55
71795;BME280;59641;45.188;5.712;2023-05-23T05:50:55;99178.94;;;20.37;56.46
71795;BME280;59641;45.188;5.712;2023-05-23T05:53:21;99176.22;;;20.37;55.77
71795;BME280;59641;45.188;5.712;2023-05-23T05:55:46;99178.94;;;20.37;55.97
71795;BME280;59641;45.188;5.712;2023-05-23T05:58:12;99178.44;;;20.35;55.63
71795;BME280;59641;45.188;5.712;2023-05-23T06:00:37;99180.91;;;20.31;56.04
71795;BME280;59641;45.188;5.712;2023-05-23T06:03:09;99172.72;;;20.31;56.14
71795;BME280;59641;45.188;5.712;2023-05-23T06:05:35;99182.81;;;20.31;56.09
71795;BME280;59641;45.188;5.712;2023-05-23T06:08:02;99181.72;;;20.32;56.10
71795;BME280;59641;45.188;5.712;2023-05-23T06:10:27;99176.25;;;20.32;56.06
71795;BME280;59641;45.188;5.712;2023-05-23T06:12:53;99182.25;;;20.34;56.41
71795;BME280;59641;45.188;5.712;2023-05-23T06:15:18;99187.09;;;20.37;56.32
71795;BME280;59641;45.188;5.712;2023-05-23T06:17:43;99190.34;;;20.39;56.61
71795;BME280;59641;45.188;5.712;2023-05-23T06:20:10;99185.97;;;20.43;56.80
71795;BME280;59641;45.188;5.712;2023-05-23T06:22:35;99188.41;;;20.45;56.52
71795;BME280;59641;45.188;5.712;2023-05-23T06:25:01;99181.84;;;20.46;56.38
71795;BME280;59641;45.188;5.712;2023-05-23T06:27:26;99176.91;;;20.48;56.56
71795;BME280;59641;45.188;5.712;2023-05-23T06:29:52;99172.00;;;20.50;56.27
71795;BME280;59641;45.188;5.712;2023-05-23T06:32:17;99176.06;;;20.52;56.48
71795;BME280;59641;45.188;5.712;2023-05-23T06:34:43;99176.03;;;20.57;56.58
71795;BME280;59641;45.188;5.712;2023-05-23T06:37:08;99179.28;;;20.59;56.97
71795;BME280;59641;45.188;5.712;2023-05-23T06:39:33;99177.56;;;20.63;56.59
71795;BME280;59641;45.188;5.712;2023-05-23T06:41:59;99180.81;;;20.66;56.39
71795;BME280;59641;45.188;5.712;2023-05-23T06:44:25;99184.38;;;20.66;56.23
71795;BME280;59641;45.188;5.712;2023-05-23T06:46:50;99185.72;;;20.69;56.97
71795;BME280;59641;45.188;5.712;2023-05-23T06:49:21;99182.41;;;20.72;56.91
71795;BME280;59641;45.188;5.712;2023-05-23T06:51:47;99181.00;;;20.74;56.67
71795;BME280;59641;45.188;5.712;2023-05-23T06:54:12;99174.16;;;20.77;56.70
71795;BME280;59641;45.188;5.712;2023-05-23T06:56:38;99186.41;;;20.79;56.61
71795;BME280;59641;45.188;5.712;2023-05-23T06:59:03;99186.91;;;20.81;56.83
71795;BME280;59641;45.188;5.712;2023-05-23T07:01:28;99189.06;;;20.84;56.83
71795;BME280;59641;45.188;5.712;2023-05-23T07:03:54;99183.31;;;20.86;56.85
71795;BME280;59641;45.188;5.712;2023-05-23T07:06:19;99185.16;;;20.91;56.81
71795;BME280;59641;45.188;5.712;2023-05-23T07:08:45;99186.50;;;20.93;56.76
71795;BME280;59641;45.188;5.712;2023-05-23T07:11:11;99179.66;;;20.96;56.75
71795;BME280;59641;45.188;5.712;2023-05-23T07:13:36;99185.31;;;20.99;56.21
71795;BME280;59641;45.188;5.712;2023-05-23T07:16:01;99189.16;;;20.98;55.88
71795;BME280;59641;45.188;5.712;2023-05-23T07:18:27;99181.78;;;20.99;55.75
71795;BME280;59641;45.188;5.712;2023-05-23T07:20:52;99180.97;;;20.98;55.80
71795;BME280;59641;45.188;5.712;2023-05-23T07:23:18;99182.31;;;21.01;56.21
71795;BME280;59641;45.188;5.712;2023-05-23T07:25:44;99176.56;;;21.02;55.87
71795;BME280;59641;45.188;5.712;2023-05-23T07:28:11;99174.91;;;21.01;55.85
71795;BME280;59641;45.188;5.712;2023-05-23T07:30:36;99173.00;;;21.02;56.09
71795;BME280;59641;45.188;5.712;2023-05-23T07:33:02;99177.06;;;21.04;56.18
71795;BME280;59641;45.188;5.712;2023-05-23T07:35:27;99174.56;;;21.08;55.96
71795;BME280;59641;45.188;5.712;2023-05-23T07:37:52;99166.38;;;21.08;56.08
71795;BME280;59641;45.188;5.712;2023-05-23T07:40:18;99175.63;;;21.12;55.82
71795;BME280;59641;45.188;5.712;2023-05-23T07:42:43;99162.25;;;21.11;55.88
71795;BME280;59641;45.188;5.712;2023-05-23T07:45:09;99168.22;;;21.13;56.02
71795;BME280;59641;45.188;5.712;2023-05-23T07:47:35;99162.50;;;21.14;56.08
71795;BME280;59641;45.188;5.712;2023-05-23T07:50:00;99159.16;;;21.17;55.92
71795;BME280;59641;45.188;5.712;2023-05-23T07:52:28;99158.28;;;21.22;55.89
71795;BME280;59641;45.188;5.712;2023-05-23T07:54:54;99162.03;;;21.26;55.63
71795;BME280;59641;45.188;5.712;2023-05-23T07:57:19;99159.00;;;21.27;55.79
71795;BME280;59641;45.188;5.712;2023-05-23T07:59:45;99152.16;;;21.30;55.71
71795;BME280;59641;45.188;5.712;2023-05-23T08:02:10;99153.47;;;21.33;55.68
71795;BME280;59641;45.188;5.712;2023-05-23T08:04:35;99149.34;;;21.35;55.41
71795;BME280;59641;45.188;5.712;2023-05-23T08:07:01;99154.50;;;21.37;55.25
71795;BME280;59641;45.188;5.712;2023-05-23T08:09:26;99147.69;;;21.39;55.32
71795;BME280;59641;45.188;5.712;2023-05-23T08:11:51;99149.81;;;21.42;55.14
71795;BME280;59641;45.188;5.712;2023-05-23T08:14:17;99139.41;;;21.44;55.25
71795;BME280;59641;45.188;5.712;2023-05-23T08:16:42;99142.38;;;21.48;55.40
71795;BME280;59641;45.188;5.712;2023-05-23T08:19:08;99145.31;;;21.52;54.97
71795;BME280;59641;45.188;5.712;2023-05-23T08:21:34;99144.41;;;21.56;55.03
71795;BME280;59641;45.188;5.712;2023-05-23T08:24:00;99144.13;;;21.58;55.63
71795;BME280;59641;45.188;5.712;2023-05-23T08:26:26;99138.56;;;21.63;55.53
71795;BME280;59641;45.188;5.712;2023-05-23T08:28:54;99138.78;;;21.66;55.10
71795;BME280;59641;45.188;5.712;2023-05-23T08:31:20;99141.41;;;21.72;55.35
71795;BME280;59641;45.188;5.712;2023-05-23T08:33:47;99138.09;;;21.75;55.01
71795;BME280;59641;45.188;5.712;2023-05-23T08:36:12;99136.38;;;21.79;54.96
71795;BME280;59641;45.188;5.712;2023-05-23T08:38:37;99131.44;;;21.81;55.36
71795;BME280;59641;45.188;5.712;2023-05-23T08:41:04;99133.25;;;21.85;54.93
71795;BME280;59641;45.188;5.712;2023-05-23T08:43:37;99140.84;;;21.88;55.41
71795;BME280;59641;45.188;5.712;2023-05-23T08:46:03;99132.88;;;21.92;55.19
71795;BME280;59641;45.188;5.712;2023-05-23T08:48:28;99128.44;;;21.96;55.31
71795;BME280;59641;45.188;5.712;2023-05-23T08:50:54;99132.19;;;22.00;55.40
71795;BME280;59641;45.188;5.712;2023-05-23T08:53:21;99126.94;;;22.04;55.38
71795;BME280;59641;45.188;5.712;2023-05-23T08:55:49;99129.06;;;22.07;55.28
71795;BME280;59641;45.188;5.712;2023-05-23T08:58:16;99122.97;;;22.10;55.42
71795;BME280;59641;45.188;5.712;2023-05-23T09:00:45;99122.06;;;22.15;55.47
71795;BME280;59641;45.188;5.712;2023-05-23T09:03:11;99123.91;;;22.19;55.28
71795;BME280;59641;45.188;5.712;2023-05-23T09:05:37;99116.75;;;22.23;55.10
71795;BME280;59641;45.188;5.712;2023-05-23T09:08:02;99117.78;;;22.27;55.55
71795;BME280;59641;45.188;5.712;2023-05-23T09:10:28;99111.88;;;22.34;55.33
71795;BME280;59641;45.188;5.712;2023-05-23T09:12:54;99111.31;;;22.37;55.24
71795;BME280;59641;45.188;5.712;2023-05-23T09:15:19;99107.66;;;22.42;55.54
71795;BME280;59641;45.188;5.712;2023-05-23T09:17:46;99108.34;;;22.47;55.48
71795;BME280;59641;45.188;5.712;2023-05-23T09:20:13;99107.13;;;22.53;55.89
71795;BME280;59641;45.188;5.712;2023-05-23T09:22:40;99108.13;;;22.58;55.80
71795;BME280;59641;45.188;5.712;2023-05-23T09:25:09;99113.00;;;22.61;55.79
71795;BME280;59641;45.188;5.712;2023-05-23T09:27:35;99104.19;;;22.64;56.07
71795;BME280;59641;45.188;5.712;2023-05-23T09:30:10;99107.63;;;22.69;56.23
71795;BME280;59641;45.188;5.712;2023-05-23T09:32:36;99102.38;;;22.73;56.36
71795;BME280;59641;45.188;5.712;2023-05-23T09:35:04;99100.59;;;22.77;55.94
71795;BME280;59641;45.188;5.712;2023-05-23T09:37:37;99101.63;;;22.81;56.32
71795;BME280;59641;45.188;5.712;2023-05-23T09:40:10;99087.81;;;22.86;56.44
71795;BME280;59641;45.188;5.712;2023-05-23T09:42:46;99101.72;;;22.90;56.61
71795;BME280;59641;45.188;5.712;2023-05-23T09:45:13;99092.88;;;22.93;56.27
71795;BME280;59641;45.188;5.712;2023-05-23T09:47:39;99082.94;;;22.97;56.30
71795;BME280;59641;45.188;5.712;2023-05-23T09:50:12;99078.81;;;23.00;56.27
71795;BME280;59641;45.188;5.712;2023-05-23T09:52:38;99086.41;;;23.03;56.03
71795;BME280;59641;45.188;5.712;2023-05-23T09:55:04;99084.66;;;23.07;56.38
71795;BME280;59641;45.188;5.712;2023-05-23T09:57:36;99078.56;;;23.10;56.15
71795;BME280;59641;45.188;5.712;2023-05-23T10:00:04;99089.09;;;23.16;56.03
71795;BME280;59641;45.188;5.712;2023-05-23T10:05:45;99085.81;;;23.28;55.82
71795;BME280;59641;45.188;5.712;2023-05-23T10:08:38;99085.97;;;23.32;56.12
71795;BME280;59641;45.188;5.712;2023-05-23T10:13:48;99086.06;;;23.41;55.75
71795;BME280;59641;45.188;5.712;2023-05-23T10:16:33;99078.94;;;23.39;55.72
71795;BME280;59641;45.188;5.712;2023-05-23T10:19:10;99079.16;;;23.43;55.82
71795;BME280;59641;45.188;5.712;2023-05-23T10:21:42;99083.50;;;23.44;55.93
71795;BME280;59641;45.188;5.712;2023-05-23T10:24:10;99075.47;;;23.48;55.94
71795;BME280;59641;45.188;5.712;2023-05-23T10:26:36;99089.03;;;23.53;55.83
71795;BME280;59641;45.188;5.712;2023-05-23T10:29:02;99070.38;;;23.55;56.04
71795;BME280;59641;45.188;5.712;2023-05-23T10:31:28;99073.28;;;23.58;56.24
71795;BME280;59641;45.188;5.712;2023-05-23T10:33:59;99077.97;;;23.67;55.86
71795;BME280;59641;45.188;5.712;2023-05-23T10:36:42;99073.50;;;23.71;55.80
71795;BME280;59641;45.188;5.712;2023-05-23T10:39:20;99073.19;;;23.72;55.53
71795;BME280;59641;45.188;5.712;2023-05-23T10:41:57;99065.28;;;23.71;55.55
71795;BME280;59641;45.188;5.712;2023-05-23T10:44:29;99064.38;;;23.75;55.56
71795;BME280;59641;45.188;5.712;2023-05-23T10:46:56;99066.97;;;23.80;55.68
71795;BME280;59641;45.188;5.712;2023-05-23T10:49:39;99063.47;;;23.89;55.71
71795;BME280;59641;45.188;5.712;2023-05-23T10:52:06;99069.94;;;23.93;55.75
71795;BME280;59641;45.188;5.712;2023-05-23T10:54:42;99065.94;;;23.99;55.54
71795;BME280;59641;45.188;5.712;2023-05-23T10:57:10;99058.72;;;24.03;55.33
71795;BME280;59641;45.188;5.712;2023-05-23T10:59:37;99063.72;;;24.10;55.56
71795;BME280;59641;45.188;5.712;2023-05-23T11:02:12;99064.06;;;24.17;55.51
71795;BME280;59641;45.188;5.712;2023-05-23T11:04:41;99065.53;;;24.23;55.35
71795;BME280;59641;45.188;5.712;2023-05-23T11:07:29;99052.03;;;24.35;55.45
71795;BME280;59641;45.188;5.712;2023-05-23T11:10:11;99049.94;;;24.41;55.03
71795;BME280;59641;45.188;5.712;2023-05-23T11:12:40;99048.03;;;24.41;55.34
71795;BME280;59641;45.188;5.712;2023-05-23T11:15:40;99049.34;;;24.53;55.19
71795;BME280;59641;45.188;5.712;2023-05-23T11:18:06;99039.66;;;24.55;55.11
71795;BME280;59641;45.188;5.712;2023-05-23T11:20:32;99042.75;;;24.62;55.11
71795;BME280;59641;45.188;5.712;2023-05-23T11:23:01;99037.59;;;24.70;54.49
71795;BME280;59641;45.188;5.712;2023-05-23T11:25:48;99035.97;;;24.77;54.48
71795;BME280;59641;45.188;5.712;2023-05-23T11:28:13;99034.53;;;24.80;54.76
71795;BME280;59641;45.188;5.712;2023-05-23T11:30:39;99046.97;;;24.86;54.47
71795;BME280;59641;45.188;5.712;2023-05-23T11:33:09;99032.28;;;24.91;54.56
71795;BME280;59641;45.188;5.712;2023-05-23T11:35:47;99034.84;;;24.96;54.02
71795;BME280;59641;45.188;5.712;2023-05-23T11:38:15;99034.38;;;25.02;54.27
71795;BME280;59641;45.188;5.712;2023-05-23T11:40:45;99041.63;;;25.07;54.20
71795;BME280;59641;45.188;5.712;2023-05-23T11:43:13;99024.81;;;25.08;54.24
71795;BME280;59641;45.188;5.712;2023-05-23T11:45:39;99036.47;;;25.14;53.36
71795;BME280;59641;45.188;5.712;2023-05-23T11:48:13;99035.97;;;25.12;53.78
71795;BME280;59641;45.188;5.712;2023-05-23T11:50:45;99022.41;;;25.16;53.81
71795;BME280;59641;45.188;5.712;2023-05-23T11:53:12;99035.53;;;25.19;53.82
71795;BME280;59641;45.188;5.712;2023-05-23T11:55:39;99033.72;;;25.23;53.80
71795;BME280;59641;45.188;5.712;2023-05-23T11:58:05;99016.63;;;25.26;53.68
71795;BME280;59641;45.188;5.712;2023-05-23T12:00:31;99031.94;;;25.27;53.52
71795;BME280;59641;45.188;5.712;2023-05-23T12:02:57;99030.00;;;25.27;53.31
71795;BME280;59641;45.188;5.712;2023-05-23T12:05:22;99015.97;;;25.29;53.63
71795;BME280;59641;45.188;5.712;2023-05-23T12:07:48;99018.69;;;25.29;53.47
71795;BME280;59641;45.188;5.712;2023-05-23T12:10:17;99029.38;;;25.31;53.54
71795;BME280;59641;45.188;5.712;2023-05-23T12:12:45;99024.69;;;25.31;53.52
71795;BME280;59641;45.188;5.712;2023-05-23T12:15:11;99025.00;;;25.29;53.38
71795;BME280;59641;45.188;5.712;2023-05-23T12:17:38;99029.06;;;25.23;52.90
71795;BME280;59641;45.188;5.712;2023-05-23T12:20:05;99027.78;;;25.21;53.15
71795;BME280;59641;45.188;5.712;2023-05-23T12:22:30;99023.72;;;25.18;53.55
71795;BME280;59641;45.188;5.712;2023-05-23T12:24:56;99014.69;;;25.18;53.25
71795;BME280;59641;45.188;5.712;2023-05-23T12:27:29;99015.47;;;25.18;53.05
71795;BME280;59641;45.188;5.712;2023-05-23T12:30:15;99016.91;;;25.16;53.12
71795;BME280;59641;45.188;5.712;2023-05-23T12:32:44;99010.00;;;25.09;53.27
71795;BME280;59641;45.188;5.712;2023-05-23T12:35:12;99010.16;;;25.04;53.45
71795;BME280;59641;45.188;5.712;2023-05-23T12:37:43;99010.97;;;25.05;53.24
71795;BME280;59641;45.188;5.712;2023-05-23T12:40:16;99001.75;;;25.01;53.29
71795;BME280;59641;45.188;5.712;2023-05-23T12:45:15;99004.84;;;24.99;53.78
71795;BME280;59641;45.188;5.712;2023-05-23T12:47:41;98999.97;;;24.96;53.54
71795;BME280;59641;45.188;5.712;2023-05-23T12:50:06;99006.59;;;24.95;53.72
71795;BME280;59641;45.188;5.712;2023-05-23T12:52:32;99000.94;;;24.92;53.44
71795;BME280;59641;45.188;5.712;2023-05-23T12:54:57;99004.84;;;24.91;53.74
71795;BME280;59641;45.188;5.712;2023-05-23T12:57:22;98997.56;;;24.86;53.46
71795;BME280;59641;45.188;5.712;2023-05-23T12:59:48;98992.38;;;24.84;53.58
71795;BME280;59641;45.188;5.712;2023-05-23T13:02:13;99000.16;;;24.82;53.84
71795;BME280;59641;45.188;5.712;2023-05-23T13:04:38;98996.13;;;24.80;53.83
71795;BME280;59641;45.188;5.712;2023-05-23T13:07:04;98986.25;;;24.70;53.59
71795;BME280;59641;45.188;5.712;2023-05-23T13:09:29;98988.06;;;24.66;53.74
71795;BME280;59641;45.188;5.712;2023-05-23T13:11:54;98980.63;;;24.66;54.06
71795;BME280;59641;45.188;5.712;2023-05-23T13:14:20;98991.75;;;24.61;53.83
71795;BME280;59641;45.188;5.712;2023-05-23T13:16:45;98988.69;;;24.54;53.96